sensor_id;sensor_type;location;lat;lon;timestamp;P1;durP1;ratioP1;P2;durP2;ratioP2
9761;SDS011;4920;49.594;11.022;2022-12-13T00:01:55;44.67;;;21.33;;
9761;SDS011;4920;49.594;11.022;2022-12-13T00:04:24;39.87;;;20.33;;
9761;SDS011;4920;49.594;11.022;2022-12-13T00:06:53;45.87;;;20.87;;
9761;SDS011;4920;49.594;11.022;2022-12-13T00:09:22;42.67;;;20.10;;
9761;SDS011;4920;49.594;11.022;2022-12-13T00:11:51;41.37;;;19.70;;
9761;SDS011;4920;49.594;11.022;2022-12-13T00:14:20;41.87;;;21.13;;
9761;SDS011;4920;49.594;11.022;2022-12-13T00:16:50;42.73;;;20.47;;
9761;SDS011;4920;49.594;11.022;2022-12-13T00:19:19;37.13;;;19.23;;
9761;SDS011;4920;49.594;11.022;2022-12-13T00:21:49;38.63;;;19.23;;
9761;SDS011;4920;49.594;11.022;2022-12-13T00:24:18;39.80;;;19.40;;
9761;SDS011;4920;49.594;11.022;2022-12-13T00:26:47;43.53;;;19.67;;
9761;SDS011;4920;49.594;11.022;2022-12-13T00:29:15;36.50;;;19.23;;
9761;SDS011;4920;49.594;11.022;2022-12-13T00:31:44;41.10;;;19.70;;
9761;SDS011;4920;49.594;11.022;2022-12-13T00:34:30;45.53;;;20.37;;
9761;SDS011;4920;49.594;11.022;2022-12-13T00:36:58;37.43;;;18.53;;
9761;SDS011;4920;49.594;11.022;2022-12-13T00:39:27;39.67;;;19.80;;
9761;SDS011;4920;49.594;11.022;2022-12-13T00:41:56;41.60;;;20.10;;
9761;SDS011;4920;49.594;11.022;2022-12-13T00:44:25;36.13;;;18.67;;
9761;SDS011;4920;49.594;11.022;2022-12-13T00:46:54;36.73;;;19.03;;
9761;SDS011;4920;49.594;11.022;2022-12-13T00:49:22;38.73;;;19.33;;
9761;SDS011;4920;49.594;11.022;2022-12-13T00:51:53;40.03;;;19.83;;
9761;SDS011;4920;49.594;11.022;2022-12-13T00:54:22;39.23;;;18.90;;
9761;SDS011;4920;49.594;11.022;2022-12-13T00:56:50;37.67;;;18.50;;
9761;SDS011;4920;49.594;11.022;2022-12-13T00:59:19;40.80;;;19.17;;
9761;SDS011;4920;49.594;11.022;2022-12-13T01:01:48;35.90;;;18.23;;
9761;SDS011;4920;49.594;11.022;2022-12-13T01:04:17;38.53;;;18.67;;
9761;SDS011;4920;49.594;11.022;2022-12-13T01:06:46;37.20;;;18.43;;
9761;SDS011;4920;49.594;11.022;2022-12-13T01:09:19;34.83;;;18.33;;
9761;SDS011;4920;49.594;11.022;2022-12-13T01:11:49;37.13;;;17.70;;
9761;SDS011;4920;49.594;11.022;2022-12-13T01:14:18;38.17;;;17.97;;
9761;SDS011;4920;49.594;11.022;2022-12-13T01:16:46;36.73;;;17.73;;
9761;SDS011;4920;49.594;11.022;2022-12-13T01:19:15;35.13;;;17.47;;
9761;SDS011;4920;49.594;11.022;2022-12-13T01:21:44;34.23;;;17.93;;
9761;SDS011;4920;49.594;11.022;2022-12-13T01:24:13;43.20;;;19.20;;
9761;SDS011;4920;49.594;11.022;2022-12-13T01:26:47;35.77;;;17.33;;
9761;SDS011;4920;49.594;11.022;2022-12-13T01:29:16;39.50;;;17.80;;
9761;SDS011;4920;49.594;11.022;2022-12-13T01:31:45;36.77;;;18.00;;
9761;SDS011;4920;49.594;11.022;2022-12-13T01:34:14;32.30;;;17.10;;
9761;SDS011;4920;49.594;11.022;2022-12-13T01:36:45;34.30;;;17.07;;
9761;SDS011;4920;49.594;11.022;2022-12-13T01:39:16;32.50;;;16.53;;
9761;SDS011;4920;49.594;11.022;2022-12-13T01:41:54;32.23;;;16.50;;
9761;SDS011;4920;49.594;11.022;2022-12-13T01:47:29;36.47;;;18.17;;
9761;SDS011;4920;49.594;11.022;2022-12-13T01:50:04;34.50;;;17.27;;
9761;SDS011;4920;49.594;11.022;2022-12-13T01:52:37;34.83;;;16.87;;
9761;SDS011;4920;49.594;11.022;2022-12-13T01:55:07;36.67;;;17.37;;
9761;SDS011;4920;49.594;11.022;2022-12-13T01:57:39;35.83;;;18.57;;
9761;SDS011;4920;49.594;11.022;2022-12-13T02:00:12;40.53;;;18.53;;
9761;SDS011;4920;49.594;11.022;2022-12-13T02:02:42;36.70;;;17.53;;
9761;SDS011;4920;49.594;11.022;2022-12-13T02:05:12;34.77;;;16.30;;
9761;SDS011;4920;49.594;11.022;2022-12-13T02:07:47;34.83;;;16.73;;
9761;SDS011;4920;49.594;11.022;2022-12-13T02:10:17;35.80;;;16.87;;
9761;SDS011;4920;49.594;11.022;2022-12-13T02:12:47;32.83;;;16.97;;
9761;SDS011;4920;49.594;11.022;2022-12-13T02:15:17;35.40;;;17.53;;
9761;SDS011;4920;49.594;11.022;2022-12-13T02:18:02;35.47;;;16.43;;
9761;SDS011;4920;49.594;11.022;2022-12-13T02:20:47;32.87;;;16.30;;
9761;SDS011;4920;49.594;11.022;2022-12-13T02:26:49;33.17;;;16.03;;
9761;SDS011;4920;49.594;11.022;2022-12-13T02:30:06;28.90;;;15.70;;
9761;SDS011;4920;49.594;11.022;2022-12-13T02:33:01;33.30;;;15.77;;
9761;SDS011;4920;49.594;11.022;2022-12-13T02:35:50;26.67;;;14.60;;
9761;SDS011;4920;49.594;11.022;2022-12-13T02:38:26;28.33;;;15.73;;
9761;SDS011;4920;49.594;11.022;2022-12-13T02:41:04;28.83;;;15.43;;
9761;SDS011;4920;49.594;11.022;2022-12-13T02:43:39;31.13;;;16.27;;
9761;SDS011;4920;49.594;11.022;2022-12-13T02:46:17;30.17;;;14.73;;
9761;SDS011;4920;49.594;11.022;2022-12-13T02:48:49;30.67;;;15.70;;
9761;SDS011;4920;49.594;11.022;2022-12-13T02:51:21;34.20;;;15.80;;
9761;SDS011;4920;49.594;11.022;2022-12-13T02:53:52;31.83;;;15.57;;
9761;SDS011;4920;49.594;11.022;2022-12-13T02:56:20;29.70;;;13.97;;
9761;SDS011;4920;49.594;11.022;2022-12-13T02:58:50;30.80;;;15.53;;
9761;SDS011;4920;49.594;11.022;2022-12-13T03:01:27;32.40;;;15.10;;
9761;SDS011;4920;49.594;11.022;2022-12-13T03:04:08;30.17;;;14.90;;
9761;SDS011;4920;49.594;11.022;2022-12-13T03:06:53;31.87;;;14.40;;
9761;SDS011;4920;49.594;11.022;2022-12-13T03:09:34;31.00;;;14.77;;
9761;SDS011;4920;49.594;11.022;2022-12-13T03:12:11;27.67;;;13.83;;
9761;SDS011;4920;49.594;11.022;2022-12-13T03:15:06;31.37;;;14.63;;
9761;SDS011;4920;49.594;11.022;2022-12-13T03:17:46;26.60;;;14.07;;
9761;SDS011;4920;49.594;11.022;2022-12-13T03:20:17;30.23;;;14.20;;
9761;SDS011;4920;49.594;11.022;2022-12-13T03:22:51;29.87;;;14.30;;
9761;SDS011;4920;49.594;11.022;2022-12-13T03:25:22;26.93;;;13.63;;
9761;SDS011;4920;49.594;11.022;2022-12-13T03:27:58;26.70;;;13.87;;
9761;SDS011;4920;49.594;11.022;2022-12-13T03:30:28;27.33;;;13.67;;
9761;SDS011;4920;49.594;11.022;2022-12-13T03:33:00;26.47;;;13.53;;
9761;SDS011;4920;49.594;11.022;2022-12-13T03:35:29;27.57;;;13.87;;
9761;SDS011;4920;49.594;11.022;2022-12-13T03:38:08;25.63;;;13.93;;
9761;SDS011;4920;49.594;11.022;2022-12-13T03:40:48;28.83;;;14.37;;
9761;SDS011;4920;49.594;11.022;2022-12-13T03:43:18;28.43;;;14.50;;
9761;SDS011;4920;49.594;11.022;2022-12-13T03:45:49;29.33;;;14.87;;
9761;SDS011;4920;49.594;11.022;2022-12-13T03:48:18;29.50;;;14.30;;
9761;SDS011;4920;49.594;11.022;2022-12-13T03:50:48;30.17;;;14.20;;
9761;SDS011;4920;49.594;11.022;2022-12-13T03:53:19;26.43;;;13.90;;
9761;SDS011;4920;49.594;11.022;2022-12-13T03:55:59;28.87;;;14.90;;
9761;SDS011;4920;49.594;11.022;2022-12-13T03:58:29;29.13;;;14.67;;
9761;SDS011;4920;49.594;11.022;2022-12-13T04:01:03;31.17;;;15.00;;
9761;SDS011;4920;49.594;11.022;2022-12-13T04:03:36;29.93;;;14.10;;
9761;SDS011;4920;49.594;11.022;2022-12-13T04:06:06;29.50;;;13.80;;
9761;SDS011;4920;49.594;11.022;2022-12-13T04:08:37;29.23;;;14.63;;
9761;SDS011;4920;49.594;11.022;2022-12-13T04:11:07;29.00;;;14.30;;
9761;SDS011;4920;49.594;11.022;2022-12-13T04:13:53;33.77;;;14.67;;
9761;SDS011;4920;49.594;11.022;2022-12-13T04:16:22;28.30;;;13.57;;
9761;SDS011;4920;49.594;11.022;2022-12-13T04:18:51;27.97;;;14.90;;
9761;SDS011;4920;49.594;11.022;2022-12-13T04:21:20;30.93;;;15.00;;
9761;SDS011;4920;49.594;11.022;2022-12-13T04:23:50;32.17;;;15.67;;
9761;SDS011;4920;49.594;11.022;2022-12-13T04:26:18;28.07;;;13.93;;
9761;SDS011;4920;49.594;11.022;2022-12-13T04:28:47;28.77;;;14.10;;
9761;SDS011;4920;49.594;11.022;2022-12-13T04:31:20;31.83;;;14.23;;
9761;SDS011;4920;49.594;11.022;2022-12-13T04:33:49;31.07;;;14.33;;
9761;SDS011;4920;49.594;11.022;2022-12-13T04:36:18;30.57;;;15.30;;
9761;SDS011;4920;49.594;11.022;2022-12-13T04:39:00;29.73;;;14.87;;
9761;SDS011;4920;49.594;11.022;2022-12-13T04:41:48;34.73;;;15.63;;
9761;SDS011;4920;49.594;11.022;2022-12-13T04:44:18;32.10;;;15.00;;
9761;SDS011;4920;49.594;11.022;2022-12-13T04:46:55;30.70;;;14.57;;
9761;SDS011;4920;49.594;11.022;2022-12-13T04:49:28;29.27;;;14.43;;
9761;SDS011;4920;49.594;11.022;2022-12-13T04:51:57;32.27;;;14.33;;
9761;SDS011;4920;49.594;11.022;2022-12-13T04:54:29;27.47;;;14.60;;
9761;SDS011;4920;49.594;11.022;2022-12-13T04:57:03;28.30;;;14.47;;
9761;SDS011;4920;49.594;11.022;2022-12-13T04:59:33;29.57;;;15.27;;
9761;SDS011;4920;49.594;11.022;2022-12-13T05:02:03;34.37;;;16.20;;
9761;SDS011;4920;49.594;11.022;2022-12-13T05:04:33;29.07;;;14.53;;
9761;SDS011;4920;49.594;11.022;2022-12-13T05:07:02;34.43;;;14.97;;
9761;SDS011;4920;49.594;11.022;2022-12-13T05:09:32;29.97;;;14.23;;
9761;SDS011;4920;49.594;11.022;2022-12-13T05:12:01;24.87;;;13.50;;
9761;SDS011;4920;49.594;11.022;2022-12-13T05:14:47;28.47;;;13.07;;
9761;SDS011;4920;49.594;11.022;2022-12-13T05:17:16;27.53;;;13.30;;
9761;SDS011;4920;49.594;11.022;2022-12-13T05:19:45;30.07;;;13.97;;
9761;SDS011;4920;49.594;11.022;2022-12-13T05:22:13;26.70;;;12.13;;
9761;SDS011;4920;49.594;11.022;2022-12-13T05:24:47;29.97;;;14.20;;
9761;SDS011;4920;49.594;11.022;2022-12-13T05:27:16;26.23;;;12.93;;
9761;SDS011;4920;49.594;11.022;2022-12-13T05:29:52;24.43;;;13.03;;
9761;SDS011;4920;49.594;11.022;2022-12-13T05:32:31;29.00;;;13.10;;
9761;SDS011;4920;49.594;11.022;2022-12-13T05:35:10;28.10;;;13.67;;
9761;SDS011;4920;49.594;11.022;2022-12-13T05:37:49;27.37;;;13.57;;
9761;SDS011;4920;49.594;11.022;2022-12-13T05:40:21;28.47;;;13.40;;
9761;SDS011;4920;49.594;11.022;2022-12-13T05:42:51;29.17;;;14.03;;
9761;SDS011;4920;49.594;11.022;2022-12-13T05:45:27;33.00;;;14.70;;
9761;SDS011;4920;49.594;11.022;2022-12-13T05:47:56;29.03;;;14.20;;
9761;SDS011;4920;49.594;11.022;2022-12-13T05:50:25;30.33;;;13.87;;
9761;SDS011;4920;49.594;11.022;2022-12-13T05:52:54;33.47;;;14.90;;
9761;SDS011;4920;49.594;11.022;2022-12-13T05:55:24;28.00;;;14.07;;
9761;SDS011;4920;49.594;11.022;2022-12-13T05:57:53;28.13;;;13.97;;
9761;SDS011;4920;49.594;11.022;2022-12-13T06:00:28;30.60;;;14.70;;
9761;SDS011;4920;49.594;11.022;2022-12-13T06:02:57;27.60;;;13.27;;
9761;SDS011;4920;49.594;11.022;2022-12-13T06:05:27;28.33;;;14.00;;
9761;SDS011;4920;49.594;11.022;2022-12-13T06:07:56;29.27;;;14.67;;
9761;SDS011;4920;49.594;11.022;2022-12-13T06:10:26;26.40;;;13.87;;
9761;SDS011;4920;49.594;11.022;2022-12-13T06:13:00;27.37;;;13.73;;
9761;SDS011;4920;49.594;11.022;2022-12-13T06:15:47;26.20;;;13.27;;
9761;SDS011;4920;49.594;11.022;2022-12-13T06:18:17;30.10;;;14.03;;
9761;SDS011;4920;49.594;11.022;2022-12-13T06:20:54;29.37;;;13.70;;
9761;SDS011;4920;49.594;11.022;2022-12-13T06:23:24;29.13;;;14.37;;
9761;SDS011;4920;49.594;11.022;2022-12-13T06:25:55;31.07;;;14.17;;
9761;SDS011;4920;49.594;11.022;2022-12-13T06:28:24;27.63;;;14.43;;
9761;SDS011;4920;49.594;11.022;2022-12-13T06:30:53;27.57;;;14.13;;
9761;SDS011;4920;49.594;11.022;2022-12-13T06:33:25;30.37;;;14.10;;
9761;SDS011;4920;49.594;11.022;2022-12-13T06:35:56;29.97;;;14.03;;
9761;SDS011;4920;49.594;11.022;2022-12-13T06:38:26;29.80;;;13.57;;
9761;SDS011;4920;49.594;11.022;2022-12-13T06:41:09;30.23;;;13.37;;
9761;SDS011;4920;49.594;11.022;2022-12-13T06:43:41;27.97;;;13.57;;
9761;SDS011;4920;49.594;11.022;2022-12-13T06:46:10;31.40;;;14.43;;
9761;SDS011;4920;49.594;11.022;2022-12-13T06:48:42;32.17;;;15.17;;
9761;SDS011;4920;49.594;11.022;2022-12-13T06:51:11;27.53;;;13.43;;
9761;SDS011;4920;49.594;11.022;2022-12-13T06:53:49;31.10;;;14.53;;
9761;SDS011;4920;49.594;11.022;2022-12-13T06:56:20;33.43;;;15.03;;
9761;SDS011;4920;49.594;11.022;2022-12-13T06:58:49;38.33;;;15.67;;
9761;SDS011;4920;49.594;11.022;2022-12-13T07:01:27;29.33;;;14.40;;
9761;SDS011;4920;49.594;11.022;2022-12-13T07:04:04;31.10;;;14.00;;
9761;SDS011;4920;49.594;11.022;2022-12-13T07:06:54;31.10;;;14.27;;
9761;SDS011;4920;49.594;11.022;2022-12-13T07:09:27;29.90;;;13.80;;
9761;SDS011;4920;49.594;11.022;2022-12-13T07:11:58;37.73;;;14.80;;
9761;SDS011;4920;49.594;11.022;2022-12-13T07:14:30;31.33;;;15.30;;
9761;SDS011;4920;49.594;11.022;2022-12-13T07:17:06;33.57;;;14.23;;
9761;SDS011;4920;49.594;11.022;2022-12-13T07:19:36;29.20;;;14.70;;
9761;SDS011;4920;49.594;11.022;2022-12-13T07:22:05;28.03;;;14.33;;
9761;SDS011;4920;49.594;11.022;2022-12-13T07:24:34;32.47;;;14.63;;
9761;SDS011;4920;49.594;11.022;2022-12-13T07:27:04;28.17;;;14.37;;
9761;SDS011;4920;49.594;11.022;2022-12-13T07:29:33;28.90;;;13.93;;
9761;SDS011;4920;49.594;11.022;2022-12-13T07:32:02;30.43;;;14.60;;
9761;SDS011;4920;49.594;11.022;2022-12-13T07:34:31;27.83;;;13.47;;
9761;SDS011;4920;49.594;11.022;2022-12-13T07:36:59;23.77;;;12.97;;
9761;SDS011;4920;49.594;11.022;2022-12-13T07:39:28;26.03;;;13.83;;
9761;SDS011;4920;49.594;11.022;2022-12-13T07:41:57;31.50;;;14.87;;
9761;SDS011;4920;49.594;11.022;2022-12-13T07:44:28;29.57;;;13.97;;
9761;SDS011;4920;49.594;11.022;2022-12-13T07:46:57;31.53;;;16.03;;
9761;SDS011;4920;49.594;11.022;2022-12-13T07:49:26;30.43;;;15.30;;
9761;SDS011;4920;49.594;11.022;2022-12-13T07:51:54;26.93;;;13.70;;
9761;SDS011;4920;49.594;11.022;2022-12-13T07:54:23;28.23;;;14.63;;
9761;SDS011;4920;49.594;11.022;2022-12-13T07:56:52;29.23;;;15.13;;
9761;SDS011;4920;49.594;11.022;2022-12-13T07:59:30;36.00;;;15.87;;
9761;SDS011;4920;49.594;11.022;2022-12-13T08:01:58;34.90;;;17.00;;
9761;SDS011;4920;49.594;11.022;2022-12-13T08:04:27;32.20;;;16.40;;
9761;SDS011;4920;49.594;11.022;2022-12-13T08:07:05;35.43;;;16.93;;
9761;SDS011;4920;49.594;11.022;2022-12-13T08:09:34;29.03;;;16.10;;
9761;SDS011;4920;49.594;11.022;2022-12-13T08:12:04;34.40;;;16.30;;
9761;SDS011;4920;49.594;11.022;2022-12-13T08:14:35;35.77;;;17.40;;
9761;SDS011;4920;49.594;11.022;2022-12-13T08:17:04;34.77;;;18.17;;
9761;SDS011;4920;49.594;11.022;2022-12-13T08:22:33;37.80;;;18.47;;
9761;SDS011;4920;49.594;11.022;2022-12-13T08:25:02;33.83;;;16.87;;
9761;SDS011;4920;49.594;11.022;2022-12-13T08:27:32;35.33;;;16.57;;
9761;SDS011;4920;49.594;11.022;2022-12-13T08:30:10;33.60;;;16.33;;
9761;SDS011;4920;49.594;11.022;2022-12-13T08:32:49;25.37;;;14.57;;
9761;SDS011;4920;49.594;11.022;2022-12-13T08:35:18;31.87;;;15.13;;
9761;SDS011;4920;49.594;11.022;2022-12-13T08:37:47;25.07;;;14.33;;
9761;SDS011;4920;49.594;11.022;2022-12-13T08:40:15;26.60;;;13.30;;
9761;SDS011;4920;49.594;11.022;2022-12-13T08:42:50;26.27;;;13.87;;
9761;SDS011;4920;49.594;11.022;2022-12-13T08:45:23;30.00;;;13.37;;
9761;SDS011;4920;49.594;11.022;2022-12-13T08:47:52;29.00;;;14.23;;
9761;SDS011;4920;49.594;11.022;2022-12-13T08:50:24;31.93;;;15.90;;
9761;SDS011;4920;49.594;11.022;2022-12-13T08:52:53;31.13;;;16.33;;
9761;SDS011;4920;49.594;11.022;2022-12-13T08:55:22;28.60;;;14.97;;
9761;SDS011;4920;49.594;11.022;2022-12-13T08:57:58;25.20;;;14.10;;
9761;SDS011;4920;49.594;11.022;2022-12-13T09:00:36;29.07;;;15.40;;
9761;SDS011;4920;49.594;11.022;2022-12-13T09:03:06;28.63;;;15.83;;
9761;SDS011;4920;49.594;11.022;2022-12-13T09:05:36;27.47;;;13.53;;
9761;SDS011;4920;49.594;11.022;2022-12-13T09:08:05;22.10;;;12.77;;
9761;SDS011;4920;49.594;11.022;2022-12-13T09:10:57;24.53;;;13.40;;
9761;SDS011;4920;49.594;11.022;2022-12-13T09:13:46;23.87;;;12.77;;
9761;SDS011;4920;49.594;11.022;2022-12-13T09:16:17;24.07;;;13.00;;
9761;SDS011;4920;49.594;11.022;2022-12-13T09:18:50;27.00;;;13.47;;
9761;SDS011;4920;49.594;11.022;2022-12-13T09:21:21;25.50;;;12.90;;
9761;SDS011;4920;49.594;11.022;2022-12-13T09:23:57;22.80;;;12.90;;
9761;SDS011;4920;49.594;11.022;2022-12-13T09:26:28;24.17;;;13.50;;
9761;SDS011;4920;49.594;11.022;2022-12-13T09:29:04;22.97;;;13.53;;
9761;SDS011;4920;49.594;11.022;2022-12-13T09:31:38;22.87;;;13.17;;
9761;SDS011;4920;49.594;11.022;2022-12-13T09:34:07;22.27;;;13.40;;
9761;SDS011;4920;49.594;11.022;2022-12-13T09:36:36;25.93;;;13.90;;
9761;SDS011;4920;49.594;11.022;2022-12-13T09:39:05;24.67;;;13.33;;
9761;SDS011;4920;49.594;11.022;2022-12-13T09:41:34;23.60;;;13.70;;
9761;SDS011;4920;49.594;11.022;2022-12-13T09:44:10;27.97;;;13.37;;
9761;SDS011;4920;49.594;11.022;2022-12-13T09:47:02;24.40;;;13.73;;
9761;SDS011;4920;49.594;11.022;2022-12-13T09:49:40;26.03;;;14.00;;
9761;SDS011;4920;49.594;11.022;2022-12-13T09:52:19;25.47;;;13.93;;
9761;SDS011;4920;49.594;11.022;2022-12-13T09:54:54;25.20;;;13.80;;
9761;SDS011;4920;49.594;11.022;2022-12-13T09:57:25;25.33;;;13.73;;
9761;SDS011;4920;49.594;11.022;2022-12-13T10:00:04;20.70;;;12.27;;
9761;SDS011;4920;49.594;11.022;2022-12-13T10:02:41;22.37;;;13.03;;
9761;SDS011;4920;49.594;11.022;2022-12-13T10:05:20;19.97;;;12.07;;
9761;SDS011;4920;49.594;11.022;2022-12-13T10:08:05;20.30;;;11.63;;
9761;SDS011;4920;49.594;11.022;2022-12-13T10:10:36;19.90;;;11.63;;
9761;SDS011;4920;49.594;11.022;2022-12-13T10:13:08;19.60;;;11.77;;
9761;SDS011;4920;49.594;11.022;2022-12-13T10:15:45;17.93;;;11.20;;
9761;SDS011;4920;49.594;11.022;2022-12-13T10:18:20;17.13;;;10.67;;
9761;SDS011;4920;49.594;11.022;2022-12-13T10:20:54;16.23;;;10.00;;
9761;SDS011;4920;49.594;11.022;2022-12-13T10:23:23;16.73;;;10.17;;
9761;SDS011;4920;49.594;11.022;2022-12-13T10:26:12;18.17;;;10.07;;
9761;SDS011;4920;49.594;11.022;2022-12-13T10:28:51;17.13;;;10.77;;
9761;SDS011;4920;49.594;11.022;2022-12-13T10:31:30;17.97;;;10.80;;
9761;SDS011;4920;49.594;11.022;2022-12-13T10:34:13;17.80;;;11.97;;
9761;SDS011;4920;49.594;11.022;2022-12-13T10:36:48;19.00;;;11.07;;
9761;SDS011;4920;49.594;11.022;2022-12-13T10:39:18;18.27;;;9.93;;
9761;SDS011;4920;49.594;11.022;2022-12-13T10:42:09;16.80;;;9.97;;
9761;SDS011;4920;49.594;11.022;2022-12-13T10:45:06;19.10;;;11.17;;
9761;SDS011;4920;49.594;11.022;2022-12-13T10:47:47;18.17;;;10.37;;
9761;SDS011;4920;49.594;11.022;2022-12-13T10:50:21;18.40;;;10.33;;
9761;SDS011;4920;49.594;11.022;2022-12-13T10:52:55;14.30;;;9.37;;
9761;SDS011;4920;49.594;11.022;2022-12-13T10:59:08;16.60;;;10.00;;
9761;SDS011;4920;49.594;11.022;2022-12-13T11:01:43;17.03;;;10.03;;
9761;SDS011;4920;49.594;11.022;2022-12-13T11:04:19;14.33;;;9.73;;
9761;SDS011;4920;49.594;11.022;2022-12-13T11:06:55;15.00;;;9.87;;
9761;SDS011;4920;49.594;11.022;2022-12-13T11:09:28;15.03;;;9.27;;
9761;SDS011;4920;49.594;11.022;2022-12-13T11:12:10;16.27;;;9.40;;
9761;SDS011;4920;49.594;11.022;2022-12-13T11:17:44;18.73;;;9.83;;
9761;SDS011;4920;49.594;11.022;2022-12-13T11:20:16;16.90;;;9.97;;
9761;SDS011;4920;49.594;11.022;2022-12-13T11:22:57;15.87;;;9.50;;
9761;SDS011;4920;49.594;11.022;2022-12-13T11:25:28;15.77;;;9.37;;
9761;SDS011;4920;49.594;11.022;2022-12-13T11:28:11;15.07;;;9.07;;
9761;SDS011;4920;49.594;11.022;2022-12-13T11:30:55;14.13;;;8.27;;
9761;SDS011;4920;49.594;11.022;2022-12-13T11:33:37;16.77;;;8.70;;
9761;SDS011;4920;49.594;11.022;2022-12-13T11:36:17;12.23;;;8.27;;
9761;SDS011;4920;49.594;11.022;2022-12-13T11:38:59;13.37;;;8.17;;
9761;SDS011;4920;49.594;11.022;2022-12-13T11:41:38;14.27;;;8.33;;
9761;SDS011;4920;49.594;11.022;2022-12-13T11:44:11;13.27;;;8.10;;
9761;SDS011;4920;49.594;11.022;2022-12-13T11:46:44;11.63;;;8.13;;
9761;SDS011;4920;49.594;11.022;2022-12-13T11:49:17;14.83;;;8.83;;
9761;SDS011;4920;49.594;11.022;2022-12-13T11:51:52;14.40;;;8.77;;
9761;SDS011;4920;49.594;11.022;2022-12-13T11:54:27;12.70;;;8.33;;
9761;SDS011;4920;49.594;11.022;2022-12-13T11:57:04;12.57;;;8.10;;
9761;SDS011;4920;49.594;11.022;2022-12-13T11:59:45;12.27;;;7.80;;
9761;SDS011;4920;49.594;11.022;2022-12-13T12:02:30;12.17;;;8.50;;
9761;SDS011;4920;49.594;11.022;2022-12-13T12:05:03;12.77;;;8.43;;
9761;SDS011;4920;49.594;11.022;2022-12-13T12:07:37;13.90;;;7.97;;
9761;SDS011;4920;49.594;11.022;2022-12-13T12:10:33;13.93;;;7.67;;
9761;SDS011;4920;49.594;11.022;2022-12-13T12:13:16;13.23;;;7.60;;
9761;SDS011;4920;49.594;11.022;2022-12-13T12:15:51;11.50;;;7.70;;
9761;SDS011;4920;49.594;11.022;2022-12-13T12:18:28;12.87;;;7.90;;
9761;SDS011;4920;49.594;11.022;2022-12-13T12:21:00;13.37;;;7.50;;
9761;SDS011;4920;49.594;11.022;2022-12-13T12:23:39;12.03;;;7.67;;
9761;SDS011;4920;49.594;11.022;2022-12-13T12:26:24;12.57;;;7.63;;
9761;SDS011;4920;49.594;11.022;2022-12-13T12:29:09;13.83;;;7.97;;
9761;SDS011;4920;49.594;11.022;2022-12-13T12:31:57;11.90;;;7.70;;
9761;SDS011;4920;49.594;11.022;2022-12-13T12:35:15;11.30;;;7.70;;
9761;SDS011;4920;49.594;11.022;2022-12-13T12:38:14;13.63;;;7.70;;
9761;SDS011;4920;49.594;11.022;2022-12-13T12:44:15;12.53;;;7.70;;
9761;SDS011;4920;49.594;11.022;2022-12-13T12:47:00;12.73;;;7.70;;
9761;SDS011;4920;49.594;11.022;2022-12-13T12:50:07;15.33;;;7.93;;
9761;SDS011;4920;49.594;11.022;2022-12-13T12:52:51;12.67;;;7.87;;
9761;SDS011;4920;49.594;11.022;2022-12-13T12:55:37;13.10;;;7.70;;
9761;SDS011;4920;49.594;11.022;2022-12-13T12:58:21;11.23;;;7.27;;
9761;SDS011;4920;49.594;11.022;2022-12-13T13:00:59;11.37;;;7.33;;
9761;SDS011;4920;49.594;11.022;2022-12-13T13:03:37;12.33;;;7.60;;
9761;SDS011;4920;49.594;11.022;2022-12-13T13:06:09;10.23;;;7.00;;
9761;SDS011;4920;49.594;11.022;2022-12-13T13:08:41;12.17;;;7.60;;
9761;SDS011;4920;49.594;11.022;2022-12-13T13:11:20;10.23;;;7.20;;
9761;SDS011;4920;49.594;11.022;2022-12-13T13:14:03;12.23;;;7.23;;
9761;SDS011;4920;49.594;11.022;2022-12-13T13:16:35;9.17;;;6.37;;
9761;SDS011;4920;49.594;11.022;2022-12-13T13:19:09;10.83;;;6.57;;
9761;SDS011;4920;49.594;11.022;2022-12-13T13:22:25;8.67;;;5.67;;
9761;SDS011;4920;49.594;11.022;2022-12-13T13:25:22;11.27;;;6.30;;
9761;SDS011;4920;49.594;11.022;2022-12-13T13:28:05;7.63;;;5.20;;
9761;SDS011;4920;49.594;11.022;2022-12-13T13:33:44;9.40;;;6.33;;
9761;SDS011;4920;49.594;11.022;2022-12-13T13:39:18;11.07;;;6.10;;
9761;SDS011;4920;49.594;11.022;2022-12-13T13:42:22;12.87;;;6.27;;
9761;SDS011;4920;49.594;11.022;2022-12-13T13:45:00;10.63;;;6.27;;
9761;SDS011;4920;49.594;11.022;2022-12-13T13:47:49;10.23;;;6.13;;
9761;SDS011;4920;49.594;11.022;2022-12-13T13:53:54;11.73;;;5.40;;
9761;SDS011;4920;49.594;11.022;2022-12-13T14:00:15;10.80;;;6.43;;
9761;SDS011;4920;49.594;11.022;2022-12-13T14:06:16;10.63;;;6.53;;
9761;SDS011;4920;49.594;11.022;2022-12-13T14:09:38;9.40;;;6.67;;
9761;SDS011;4920;49.594;11.022;2022-12-13T14:19:05;8.67;;;5.83;;
9761;SDS011;4920;49.594;11.022;2022-12-13T14:22:00;10.43;;;6.77;;
9761;SDS011;4920;49.594;11.022;2022-12-13T14:24:53;11.13;;;6.83;;
9761;SDS011;4920;49.594;11.022;2022-12-13T14:27:35;10.83;;;6.60;;
9761;SDS011;4920;49.594;11.022;2022-12-13T14:30:11;11.00;;;7.13;;
9761;SDS011;4920;49.594;11.022;2022-12-13T14:32:54;11.73;;;7.00;;
9761;SDS011;4920;49.594;11.022;2022-12-13T14:35:27;10.57;;;6.73;;
9761;SDS011;4920;49.594;11.022;2022-12-13T14:38:00;12.20;;;7.20;;
9761;SDS011;4920;49.594;11.022;2022-12-13T14:40:33;11.60;;;7.67;;
9761;SDS011;4920;49.594;11.022;2022-12-13T14:43:04;11.23;;;6.83;;
9761;SDS011;4920;49.594;11.022;2022-12-13T14:45:33;9.33;;;6.73;;
9761;SDS011;4920;49.594;11.022;2022-12-13T14:48:04;12.03;;;6.70;;
9761;SDS011;4920;49.594;11.022;2022-12-13T14:50:54;13.30;;;7.07;;
9761;SDS011;4920;49.594;11.022;2022-12-13T14:53:23;10.37;;;6.33;;
9761;SDS011;4920;49.594;11.022;2022-12-13T14:56:03;11.53;;;6.73;;
9761;SDS011;4920;49.594;11.022;2022-12-13T14:58:34;10.30;;;6.37;;
9761;SDS011;4920;49.594;11.022;2022-12-13T15:01:04;12.10;;;6.73;;
9761;SDS011;4920;49.594;11.022;2022-12-13T15:03:34;9.97;;;6.23;;
9761;SDS011;4920;49.594;11.022;2022-12-13T15:06:03;11.60;;;6.97;;
9761;SDS011;4920;49.594;11.022;2022-12-13T15:08:32;10.17;;;6.80;;
9761;SDS011;4920;49.594;11.022;2022-12-13T15:11:07;9.93;;;5.97;;
9761;SDS011;4920;49.594;11.022;2022-12-13T15:13:37;12.93;;;7.77;;
9761;SDS011;4920;49.594;11.022;2022-12-13T15:16:09;19.97;;;10.43;;
9761;SDS011;4920;49.594;11.022;2022-12-13T15:18:47;16.77;;;10.53;;
9761;SDS011;4920;49.594;11.022;2022-12-13T15:21:20;15.73;;;10.03;;
9761;SDS011;4920;49.594;11.022;2022-12-13T15:23:56;14.93;;;8.90;;
9761;SDS011;4920;49.594;11.022;2022-12-13T15:26:30;17.73;;;9.77;;
9761;SDS011;4920;49.594;11.022;2022-12-13T15:29:00;15.87;;;9.67;;
9761;SDS011;4920;49.594;11.022;2022-12-13T15:34:38;13.70;;;8.20;;
9761;SDS011;4920;49.594;11.022;2022-12-13T15:37:13;15.57;;;8.70;;
9761;SDS011;4920;49.594;11.022;2022-12-13T15:39:56;15.97;;;9.63;;
9761;SDS011;4920;49.594;11.022;2022-12-13T15:42:30;16.47;;;9.10;;
9761;SDS011;4920;49.594;11.022;2022-12-13T15:45:00;15.27;;;9.50;;
9761;SDS011;4920;49.594;11.022;2022-12-13T15:47:31;20.50;;;11.67;;
9761;SDS011;4920;49.594;11.022;2022-12-13T15:50:01;16.10;;;9.03;;
9761;SDS011;4920;49.594;11.022;2022-12-13T15:52:34;19.30;;;11.47;;
9761;SDS011;4920;49.594;11.022;2022-12-13T15:55:24;18.47;;;11.60;;
9761;SDS011;4920;49.594;11.022;2022-12-13T15:57:57;18.27;;;10.87;;
9761;SDS011;4920;49.594;11.022;2022-12-13T16:00:28;18.40;;;11.10;;
9761;SDS011;4920;49.594;11.022;2022-12-13T16:06:24;22.77;;;12.00;;
9761;SDS011;4920;49.594;11.022;2022-12-13T16:12:45;18.53;;;11.17;;
9761;SDS011;4920;49.594;11.022;2022-12-13T16:15:28;16.17;;;10.00;;
9761;SDS011;4920;49.594;11.022;2022-12-13T16:18:13;19.80;;;11.40;;